sensor_id;sensor_type;location;lat;lon;timestamp;pressure;altitude;pressure_sealevel;temperature;humidity
46379;BME280;32084;42.254;22.744;2022-12-10T00:02:20;94595.25;;;15.21;64.24
46379;BME280;32084;42.254;22.744;2022-12-10T00:04:46;94603.53;;;15.19;64.07
46379;BME280;32084;42.254;22.744;2022-12-10T00:07:12;94601.50;;;15.21;64.33
46379;BME280;32084;42.254;22.744;2022-12-10T00:09:38;94601.69;;;15.20;64.26
46379;BME280;32084;42.254;22.744;2022-12-10T00:12:04;94595.06;;;15.22;64.15
46379;BME280;32084;42.254;22.744;2022-12-10T00:14:30;94585.72;;;15.25;64.14
46379;BME280;32084;42.254;22.744;2022-12-10T00:16:56;94586.38;;;15.27;64.01
46379;BME280;32084;42.254;22.744;2022-12-10T00:19:23;94587.22;;;15.28;63.82
46379;BME280;32084;42.254;22.744;2022-12-10T00:21:49;94590.34;;;15.31;63.90
46379;BME280;32084;42.254;22.744;2022-12-10T00:24:15;94590.72;;;15.28;63.95
46379;BME280;32084;42.254;22.744;2022-12-10T00:26:41;94593.22;;;15.30;63.68
46379;BME280;32084;42.254;22.744;2022-12-10T00:29:09;94603.16;;;15.29;63.81
46379;BME280;32084;42.254;22.744;2022-12-10T00:31:36;94595.91;;;15.30;63.91
46379;BME280;32084;42.254;22.744;2022-12-10T00:34:04;94596.53;;;15.32;63.80
46379;BME280;32084;42.254;22.744;2022-12-10T00:36:32;94605.25;;;15.34;63.74
46379;BME280;32084;42.254;22.744;2022-12-10T00:38:59;94608.13;;;15.32;63.65
46379;BME280;32084;42.254;22.744;2022-12-10T00:41:25;94610.63;;;15.27;64.13
46379;BME280;32084;42.254;22.744;2022-12-10T00:43:51;94599.63;;;15.22;63.96
46379;BME280;32084;42.254;22.744;2022-12-10T00:46:18;94592.16;;;15.24;64.05
46379;BME280;32084;42.254;22.744;2022-12-10T00:48:45;94601.50;;;15.21;64.03
46379;BME280;32084;42.254;22.744;2022-12-10T00:51:15;94605.22;;;15.20;64.22
46379;BME280;32084;42.254;22.744;2022-12-10T00:53:41;94611.41;;;15.21;64.15
46379;BME280;32084;42.254;22.744;2022-12-10T00:56:08;94607.50;;;15.23;64.10
46379;BME280;32084;42.254;22.744;2022-12-10T00:58:35;94603.97;;;15.23;64.28
46379;BME280;32084;42.254;22.744;2022-12-10T01:01:12;94590.91;;;15.27;64.22
46379;BME280;32084;42.254;22.744;2022-12-10T01:03:39;94580.34;;;15.25;64.51
46379;BME280;32084;42.254;22.744;2022-12-10T01:06:10;94582.25;;;15.31;64.33
46379;BME280;32084;42.254;22.744;2022-12-10T01:08:36;94580.56;;;15.30;64.43
46379;BME280;32084;42.254;22.744;2022-12-10T01:11:02;94576.63;;;15.26;64.50
46379;BME280;32084;42.254;22.744;2022-12-10T01:13:28;94576.66;;;15.33;64.46
46379;BME280;32084;42.254;22.744;2022-12-10T01:15:54;94574.78;;;15.33;64.63
46379;BME280;32084;42.254;22.744;2022-12-10T01:18:20;94572.69;;;15.29;64.74
46379;BME280;32084;42.254;22.744;2022-12-10T01:20:46;94572.50;;;15.30;64.59
46379;BME280;32084;42.254;22.744;2022-12-10T01:23:12;94576.00;;;15.31;64.62
46379;BME280;32084;42.254;22.744;2022-12-10T01:25:38;94566.09;;;15.31;64.77
46379;BME280;32084;42.254;22.744;2022-12-10T01:28:04;94571.47;;;15.31;64.82
46379;BME280;32084;42.254;22.744;2022-12-10T01:30:32;94556.34;;;15.23;64.97
46379;BME280;32084;42.254;22.744;2022-12-10T01:32:58;94556.75;;;15.27;65.14
46379;BME280;32084;42.254;22.744;2022-12-10T01:35:24;94552.78;;;15.23;64.84
46379;BME280;32084;42.254;22.744;2022-12-10T01:37:50;94557.75;;;15.19;65.06
46379;BME280;32084;42.254;22.744;2022-12-10T01:40:16;94562.94;;;15.14;65.71
46379;BME280;32084;42.254;22.744;2022-12-10T01:42:42;94562.09;;;15.14;65.64
46379;BME280;32084;42.254;22.744;2022-12-10T01:45:10;94571.66;;;15.16;65.61
46379;BME280;32084;42.254;22.744;2022-12-10T01:47:36;94567.09;;;15.10;65.75
46379;BME280;32084;42.254;22.744;2022-12-10T01:50:02;94568.34;;;15.14;65.82
46379;BME280;32084;42.254;22.744;2022-12-10T01:52:28;94572.66;;;15.15;65.81
46379;BME280;32084;42.254;22.744;2022-12-10T01:54:55;94565.44;;;15.16;65.55
46379;BME280;32084;42.254;22.744;2022-12-10T01:57:22;94569.16;;;15.15;65.85
46379;BME280;32084;42.254;22.744;2022-12-10T01:59:53;94566.50;;;15.21;65.75
46379;BME280;32084;42.254;22.744;2022-12-10T02:15:30;94549.91;;;15.18;66.04
46379;BME280;32084;42.254;22.744;2022-12-10T02:21:00;94541.59;;;15.13;66.72
46379;BME280;32084;42.254;22.744;2022-12-10T02:23:30;94537.03;;;15.13;66.43
46379;BME280;32084;42.254;22.744;2022-12-10T02:31:25;94533.09;;;15.09;66.70
46379;BME280;32084;42.254;22.744;2022-12-10T02:33:53;94529.97;;;15.06;66.98
46379;BME280;32084;42.254;22.744;2022-12-10T02:36:21;94525.84;;;15.03;67.54
46379;BME280;32084;42.254;22.744;2022-12-10T02:38:48;94533.50;;;14.99;67.70
46379;BME280;32084;42.254;22.744;2022-12-10T02:41:20;94529.13;;;14.98;67.83
46379;BME280;32084;42.254;22.744;2022-12-10T02:43:49;94512.78;;;15.00;67.69
46379;BME280;32084;42.254;22.744;2022-12-10T02:46:17;94508.84;;;14.96;68.39
46379;BME280;32084;42.254;22.744;2022-12-10T02:48:44;94522.06;;;14.91;68.87
46379;BME280;32084;42.254;22.744;2022-12-10T02:51:12;94516.94;;;14.89;69.19
46379;BME280;32084;42.254;22.744;2022-12-10T02:53:42;94516.06;;;14.89;68.90
46379;BME280;32084;42.254;22.744;2022-12-10T03:01:10;94524.78;;;14.84;70.02
46379;BME280;32084;42.254;22.744;2022-12-10T03:03:47;94519.16;;;14.79;69.99
46379;BME280;32084;42.254;22.744;2022-12-10T03:06:18;94515.22;;;14.75;70.18
46379;BME280;32084;42.254;22.744;2022-12-10T03:08:56;94516.47;;;14.72;70.31
46379;BME280;32084;42.254;22.744;2022-12-10T03:11:25;94524.72;;;14.71;70.42
46379;BME280;32084;42.254;22.744;2022-12-10T03:13:54;94524.91;;;14.69;70.74
46379;BME280;32084;42.254;22.744;2022-12-10T03:16:21;94525.94;;;14.68;70.95
46379;BME280;32084;42.254;22.744;2022-12-10T03:18:50;94519.94;;;14.66;71.08
46379;BME280;32084;42.254;22.744;2022-12-10T03:21:17;94515.59;;;14.65;71.13
46379;BME280;32084;42.254;22.744;2022-12-10T03:23:45;94498.84;;;14.63;71.25
46379;BME280;32084;42.254;22.744;2022-12-10T03:26:12;94505.84;;;14.64;71.07
46379;BME280;32084;42.254;22.744;2022-12-10T03:28:39;94501.53;;;14.63;71.24
46379;BME280;32084;42.254;22.744;2022-12-10T03:31:08;94499.25;;;14.67;71.16
46379;BME280;32084;42.254;22.744;2022-12-10T03:33:36;94505.25;;;14.69;71.33
46379;BME280;32084;42.254;22.744;2022-12-10T03:36:02;94522.22;;;14.69;71.17
46379;BME280;32084;42.254;22.744;2022-12-10T03:38:29;94523.47;;;14.67;71.24
46379;BME280;32084;42.254;22.744;2022-12-10T03:40:55;94520.34;;;14.63;71.55
46379;BME280;32084;42.254;22.744;2022-12-10T03:43:21;94523.47;;;14.67;71.36
46379;BME280;32084;42.254;22.744;2022-12-10T03:45:47;94523.25;;;14.68;71.41
46379;BME280;32084;42.254;22.744;2022-12-10T03:48:13;94518.09;;;14.67;71.59
46379;BME280;32084;42.254;22.744;2022-12-10T03:50:39;94513.09;;;14.63;71.85
46379;BME280;32084;42.254;22.744;2022-12-10T03:53:05;94525.09;;;14.61;72.11
46379;BME280;32084;42.254;22.744;2022-12-10T03:55:31;94508.53;;;14.57;72.53
46379;BME280;32084;42.254;22.744;2022-12-10T03:57:58;94504.81;;;14.58;72.60
46379;BME280;32084;42.254;22.744;2022-12-10T04:00:24;94508.34;;;14.59;72.93
46379;BME280;32084;42.254;22.744;2022-12-10T04:02:50;94511.84;;;14.59;72.98
46379;BME280;32084;42.254;22.744;2022-12-10T04:05:16;94513.25;;;14.55;73.31
46379;BME280;32084;42.254;22.744;2022-12-10T04:07:42;94516.97;;;14.54;73.39
46379;BME280;32084;42.254;22.744;2022-12-10T04:10:08;94515.09;;;14.55;73.61
46379;BME280;32084;42.254;22.744;2022-12-10T04:12:35;94522.81;;;14.58;73.59
46379;BME280;32084;42.254;22.744;2022-12-10T04:15:01;94520.34;;;14.63;73.25
46379;BME280;32084;42.254;22.744;2022-12-10T04:17:45;94515.16;;;14.61;73.64
46379;BME280;32084;42.254;22.744;2022-12-10T04:20:11;94507.91;;;14.62;73.50
46379;BME280;32084;42.254;22.744;2022-12-10T04:22:56;94511.22;;;14.57;74.17
46379;BME280;32084;42.254;22.744;2022-12-10T04:25:41;94503.78;;;14.59;73.71
46379;BME280;32084;42.254;22.744;2022-12-10T04:28:25;94515.53;;;14.52;74.33
46379;BME280;32084;42.254;22.744;2022-12-10T04:30:51;94507.03;;;14.48;74.62
46379;BME280;32084;42.254;22.744;2022-12-10T04:33:17;94498.53;;;14.44;74.41
46379;BME280;32084;42.254;22.744;2022-12-10T04:35:43;94506.78;;;14.43;74.78
46379;BME280;32084;42.254;22.744;2022-12-10T04:38:10;94501.84;;;14.47;74.69
46379;BME280;32084;42.254;22.744;2022-12-10T04:40:36;94510.09;;;14.45;74.69
46379;BME280;32084;42.254;22.744;2022-12-10T04:43:02;94495.22;;;14.49;74.37
46379;BME280;32084;42.254;22.744;2022-12-10T04:45:28;94486.53;;;14.47;74.27
46379;BME280;32084;42.254;22.744;2022-12-10T04:47:54;94488.78;;;14.43;74.37
46379;BME280;32084;42.254;22.744;2022-12-10T04:50:20;94482.38;;;14.44;74.16
46379;BME280;32084;42.254;22.744;2022-12-10T04:52:46;94483.84;;;14.47;74.08
46379;BME280;32084;42.254;22.744;2022-12-10T04:55:12;94480.72;;;14.43;74.21
46379;BME280;32084;42.254;22.744;2022-12-10T04:57:38;94486.50;;;14.40;74.22
46379;BME280;32084;42.254;22.744;2022-12-10T05:00:04;94491.88;;;14.40;74.03
46379;BME280;32084;42.254;22.744;2022-12-10T05:02:30;94506.78;;;14.43;74.00
46379;BME280;32084;42.254;22.744;2022-12-10T05:04:56;94517.97;;;14.47;73.65
46379;BME280;32084;42.254;22.744;2022-12-10T05:07:22;94522.53;;;14.46;73.72
46379;BME280;32084;42.254;22.744;2022-12-10T05:09:48;94528.94;;;14.45;73.67
46379;BME280;32084;42.254;22.744;2022-12-10T05:12:14;94517.78;;;14.48;73.47
46379;BME280;32084;42.254;22.744;2022-12-10T05:14:40;94511.34;;;14.49;73.30
46379;BME280;32084;42.254;22.744;2022-12-10T05:17:07;94517.16;;;14.53;73.12
46379;BME280;32084;42.254;22.744;2022-12-10T05:19:33;94513.66;;;14.52;73.05
46379;BME280;32084;42.254;22.744;2022-12-10T05:21:59;94508.28;;;14.52;72.93
46379;BME280;32084;42.254;22.744;2022-12-10T05:24:44;94512.41;;;14.55;72.97
46379;BME280;32084;42.254;22.744;2022-12-10T05:27:10;94498.75;;;14.56;72.78
46379;BME280;32084;42.254;22.744;2022-12-10T05:29:36;94501.53;;;14.63;72.70
46379;BME280;32084;42.254;22.744;2022-12-10T05:32:03;94494.28;;;14.63;72.47
46379;BME280;32084;42.254;22.744;2022-12-10T05:34:30;94502.50;;;14.55;73.13
46379;BME280;32084;42.254;22.744;2022-12-10T05:36:56;94514.28;;;14.54;73.17
46379;BME280;32084;42.254;22.744;2022-12-10T05:39:22;94511.78;;;14.53;73.33
46379;BME280;32084;42.254;22.744;2022-12-10T05:41:48;94508.06;;;14.54;73.25
46379;BME280;32084;42.254;22.744;2022-12-10T05:44:14;94495.66;;;14.53;73.61
46379;BME280;32084;42.254;22.744;2022-12-10T05:46:40;94488.19;;;14.48;73.57
46379;BME280;32084;42.254;22.744;2022-12-10T05:49:06;94500.59;;;14.42;73.65
46379;BME280;32084;42.254;22.744;2022-12-10T05:51:33;94505.53;;;14.39;74.09
46379;BME280;32084;42.254;22.744;2022-12-10T05:54:00;94496.41;;;14.33;74.23
46379;BME280;32084;42.254;22.744;2022-12-10T05:56:27;94508.41;;;14.31;74.43
46379;BME280;32084;42.254;22.744;2022-12-10T05:58:54;94507.78;;;14.29;74.74
46379;BME280;32084;42.254;22.744;2022-12-10T06:01:22;94505.09;;;14.29;74.66
46379;BME280;32084;42.254;22.744;2022-12-10T06:03:49;94508.78;;;14.28;74.75
46379;BME280;32084;42.254;22.744;2022-12-10T06:06:21;94516.03;;;14.27;74.77
46379;BME280;32084;42.254;22.744;2022-12-10T06:08:48;94508.97;;;14.26;74.88
46379;BME280;32084;42.254;22.744;2022-12-10T06:11:14;94500.72;;;14.28;74.79
46379;BME280;32084;42.254;22.744;2022-12-10T06:13:41;94500.97;;;14.33;74.60
46379;BME280;32084;42.254;22.744;2022-12-10T06:16:08;94507.59;;;14.37;74.32
46379;BME280;32084;42.254;22.744;2022-12-10T06:18:34;94508.47;;;14.44;73.90
46379;BME280;32084;42.254;22.744;2022-12-10T06:21:08;94519.22;;;14.44;73.76
46379;BME280;32084;42.254;22.744;2022-12-10T06:23:35;94520.47;;;14.48;73.69
46379;BME280;32084;42.254;22.744;2022-12-10T06:26:05;94519.84;;;14.46;73.72
46379;BME280;32084;42.254;22.744;2022-12-10T06:28:31;94521.91;;;14.44;73.76
46379;BME280;32084;42.254;22.744;2022-12-10T06:30:58;94522.09;;;14.42;73.74
46379;BME280;32084;42.254;22.744;2022-12-10T06:33:24;94513.84;;;14.44;73.66
46379;BME280;32084;42.254;22.744;2022-12-10T06:35:50;94516.09;;;14.47;73.56
46379;BME280;32084;42.254;22.744;2022-12-10T06:38:16;94514.47;;;14.46;73.38
46379;BME280;32084;42.254;22.744;2022-12-10T06:40:42;94519.66;;;14.48;73.46
46379;BME280;32084;42.254;22.744;2022-12-10T06:43:08;94516.09;;;14.47;73.32
46379;BME280;32084;42.254;22.744;2022-12-10T06:45:38;94510.72;;;14.47;73.40
46379;BME280;32084;42.254;22.744;2022-12-10T06:48:04;94504.72;;;14.45;73.21
46379;BME280;32084;42.254;22.744;2022-12-10T06:50:31;94516.31;;;14.45;73.37
46379;BME280;32084;42.254;22.744;2022-12-10T06:52:57;94513.84;;;14.44;73.46
46379;BME280;32084;42.254;22.744;2022-12-10T06:55:23;94509.72;;;14.55;73.26
46379;BME280;32084;42.254;22.744;2022-12-10T06:57:52;94512.41;;;14.55;73.12
46379;BME280;32084;42.254;22.744;2022-12-10T07:00:19;94504.97;;;14.50;73.32
46379;BME280;32084;42.254;22.744;2022-12-10T07:02:45;94497.50;;;14.52;73.28
46379;BME280;32084;42.254;22.744;2022-12-10T07:05:11;94496.25;;;14.48;73.33
46379;BME280;32084;42.254;22.744;2022-12-10T07:07:37;94515.47;;;14.45;73.77
46379;BME280;32084;42.254;22.744;2022-12-10T07:10:04;94510.94;;;14.45;73.69
46379;BME280;32084;42.254;22.744;2022-12-10T07:12:30;94526.88;;;14.47;73.55
46379;BME280;32084;42.254;22.744;2022-12-10T07:14:56;94531.22;;;14.48;73.56
46379;BME280;32084;42.254;22.744;2022-12-10T07:17:22;94539.91;;;14.50;73.59
46379;BME280;32084;42.254;22.744;2022-12-10T07:19:48;94536.41;;;14.50;73.54
46379;BME280;32084;42.254;22.744;2022-12-10T07:22:14;94546.56;;;14.54;73.47
46379;BME280;32084;42.254;22.744;2022-12-10T07:24:40;94539.19;;;14.63;73.02
46379;BME280;32084;42.254;22.744;2022-12-10T07:27:07;94526.78;;;14.69;72.82
46379;BME280;32084;42.254;22.744;2022-12-10T07:29:33;94519.75;;;14.68;72.49
46379;BME280;32084;42.254;22.744;2022-12-10T07:32:00;94530.94;;;14.71;72.55
46379;BME280;32084;42.254;22.744;2022-12-10T07:34:26;94525.34;;;14.73;72.28
46379;BME280;32084;42.254;22.744;2022-12-10T07:36:52;94528.03;;;14.73;72.05
46379;BME280;32084;42.254;22.744;2022-12-10T07:39:18;94532.41;;;14.80;72.02
46379;BME280;32084;42.254;22.744;2022-12-10T07:41:46;94537.78;;;14.80;72.15
46379;BME280;32084;42.254;22.744;2022-12-10T07:44:13;94535.53;;;14.84;71.83
46379;BME280;32084;42.254;22.744;2022-12-10T07:46:39;94529.09;;;14.78;71.78
46379;BME280;32084;42.254;22.744;2022-12-10T07:49:05;94540.91;;;14.84;71.75
46379;BME280;32084;42.254;22.744;2022-12-10T07:51:31;94538.00;;;14.79;72.03
46379;BME280;32084;42.254;22.744;2022-12-10T07:53:57;94535.91;;;14.81;71.79
46379;BME280;32084;42.254;22.744;2022-12-10T07:56:24;94536.34;;;14.84;71.83
46379;BME280;32084;42.254;22.744;2022-12-10T07:58:50;94533.91;;;14.90;71.46
46379;BME280;32084;42.254;22.744;2022-12-10T08:01:18;94531.19;;;14.90;71.51
46379;BME280;32084;42.254;22.744;2022-12-10T08:03:45;94536.38;;;14.91;71.33
46379;BME280;32084;42.254;22.744;2022-12-10T08:06:12;94532.44;;;14.94;71.22
46379;BME280;32084;42.254;22.744;2022-12-10T08:08:39;94521.28;;;14.97;71.01
46379;BME280;32084;42.254;22.744;2022-12-10T08:11:05;94522.09;;;14.97;71.23
46379;BME280;32084;42.254;22.744;2022-12-10T08:13:32;94507.00;;;15.03;70.83
46379;BME280;32084;42.254;22.744;2022-12-10T08:16:17;94510.75;;;15.09;70.83
46379;BME280;32084;42.254;22.744;2022-12-10T08:18:44;94524.41;;;15.14;70.72
46379;BME280;32084;42.254;22.744;2022-12-10T08:21:12;94531.06;;;15.18;70.22
46379;BME280;32084;42.254;22.744;2022-12-10T08:23:38;94540.59;;;15.20;70.27
46379;BME280;32084;42.254;22.744;2022-12-10T08:26:05;94537.25;;;15.18;69.80
46379;BME280;32084;42.254;22.744;2022-12-10T08:28:32;94528.78;;;15.21;69.64
46379;BME280;32084;42.254;22.744;2022-12-10T08:30:59;94520.31;;;15.31;69.20
46379;BME280;32084;42.254;22.744;2022-12-10T08:33:25;94526.94;;;15.42;68.83
46379;BME280;32084;42.254;22.744;2022-12-10T08:35:51;94517.00;;;15.42;68.84
46379;BME280;32084;42.254;22.744;2022-12-10T08:38:17;94505.78;;;15.46;68.64
46379;BME280;32084;42.254;22.744;2022-12-10T08:40:43;94497.94;;;15.51;68.73
46379;BME280;32084;42.254;22.744;2022-12-10T08:43:09;94505.59;;;15.54;68.31
46379;BME280;32084;42.254;22.744;2022-12-10T08:45:35;94498.75;;;15.58;68.24
46379;BME280;32084;42.254;22.744;2022-12-10T08:48:01;94492.53;;;15.71;67.35
46379;BME280;32084;42.254;22.744;2022-12-10T08:50:28;94499.19;;;15.81;67.29
46379;BME280;32084;42.254;22.744;2022-12-10T08:52:54;94494.63;;;15.89;66.96
46379;BME280;32084;42.254;22.744;2022-12-10T08:55:20;94494.63;;;15.89;66.85
46379;BME280;32084;42.254;22.744;2022-12-10T08:57:46;94491.09;;;15.88;66.83
46379;BME280;32084;42.254;22.744;2022-12-10T09:00:12;94464.53;;;15.92;66.76
46379;BME280;32084;42.254;22.744;2022-12-10T09:02:39;94471.78;;;15.98;66.50
46379;BME280;32084;42.254;22.744;2022-12-10T09:05:06;94448.53;;;16.04;66.50
46379;BME280;32084;42.254;22.744;2022-12-10T09:07:32;94457.66;;;16.09;66.09
46379;BME280;32084;42.254;22.744;2022-12-10T09:09:58;94436.91;;;16.16;65.48
46379;BME280;32084;42.254;22.744;2022-12-10T09:12:24;94425.25;;;16.23;64.95
46379;BME280;32084;42.254;22.744;2022-12-10T09:14:50;94411.91;;;16.34;65.15
46379;BME280;32084;42.254;22.744;2022-12-10T09:17:16;94411.28;;;16.39;64.33
46379;BME280;32084;42.254;22.744;2022-12-10T09:19:42;94405.63;;;16.47;64.23
46379;BME280;32084;42.254;22.744;2022-12-10T09:22:08;94413.47;;;16.55;63.98
46379;BME280;32084;42.254;22.744;2022-12-10T09:24:34;94396.41;;;16.62;63.64
46379;BME280;32084;42.254;22.744;2022-12-10T09:27:01;94395.25;;;16.83;63.01
46379;BME280;32084;42.254;22.744;2022-12-10T09:29:28;94404.34;;;16.88;62.93
46379;BME280;32084;42.254;22.744;2022-12-10T09:31:54;94404.09;;;16.96;62.23
46379;BME280;32084;42.254;22.744;2022-12-10T09:34:20;94402.50;;;16.89;62.03
46379;BME280;32084;42.254;22.744;2022-12-10T09:36:47;94409.72;;;16.95;62.65
46379;BME280;32084;42.254;22.744;2022-12-10T09:39:13;94405.75;;;16.97;62.15
46379;BME280;32084;42.254;22.744;2022-12-10T09:46:57;94395.81;;;16.91;62.36
46379;BME280;32084;42.254;22.744;2022-12-10T09:52:12;94388.16;;;16.88;61.82
46379;BME280;32084;42.254;22.744;2022-12-10T09:54:41;94385.41;;;16.95;61.65
46379;BME280;32084;42.254;22.744;2022-12-10T09:57:20;94374.19;;;16.98;61.54
46379;BME280;32084;42.254;22.744;2022-12-10T09:59:49;94382.03;;;17.00;61.58
46379;BME280;32084;42.254;22.744;2022-12-10T10:04:44;94377.91;;;16.97;61.15
46379;BME280;32084;42.254;22.744;2022-12-10T10:07:14;94364.22;;;16.98;61.86
46379;BME280;32084;42.254;22.744;2022-12-10T10:09:42;94359.81;;;17.04;61.36
46379;BME280;32084;42.254;22.744;2022-12-10T10:12:13;94349.50;;;16.94;61.01
46379;BME280;32084;42.254;22.744;2022-12-10T10:14:40;94348.50;;;16.89;60.74
46379;BME280;32084;42.254;22.744;2022-12-10T10:17:09;94327.28;;;16.92;60.97
46379;BME280;32084;42.254;22.744;2022-12-10T10:19:37;94344.31;;;16.93;60.51
46379;BME280;32084;42.254;22.744;2022-12-10T10:22:08;94326.03;;;16.95;60.14
46379;BME280;32084;42.254;22.744;2022-12-10T10:24:35;94335.28;;;17.06;61.05
46379;BME280;32084;42.254;22.744;2022-12-10T10:27:10;94328.81;;;17.07;59.57
46379;BME280;32084;42.254;22.744;2022-12-10T10:29:37;94330.53;;;17.01;59.94
46379;BME280;32084;42.254;22.744;2022-12-10T10:32:17;94325.28;;;17.06;59.57
46379;BME280;32084;42.254;22.744;2022-12-10T10:34:44;94320.56;;;17.02;59.71
46379;BME280;32084;42.254;22.744;2022-12-10T10:39:54;94319.84;;;16.88;59.93
46379;BME280;32084;42.254;22.744;2022-12-10T10:42:25;94316.25;;;16.94;60.71
46379;BME280;32084;42.254;22.744;2022-12-10T10:44:53;94311.78;;;17.06;60.25
46379;BME280;32084;42.254;22.744;2022-12-10T10:47:24;94305.97;;;17.09;59.90
46379;BME280;32084;42.254;22.744;2022-12-10T10:49:51;94305.28;;;17.14;60.10
46379;BME280;32084;42.254;22.744;2022-12-10T10:52:17;94302.16;;;17.17;60.49
46379;BME280;32084;42.254;22.744;2022-12-10T10:54:44;94312.50;;;17.20;59.96
46379;BME280;32084;42.254;22.744;2022-12-10T10:57:11;94303.09;;;17.04;59.82
46379;BME280;32084;42.254;22.744;2022-12-10T10:59:38;94285.81;;;17.05;60.36
46379;BME280;32084;42.254;22.744;2022-12-10T11:04:37;94270.75;;;16.97;60.64
46379;BME280;32084;42.254;22.744;2022-12-10T11:07:15;94274.50;;;16.96;60.88
46379;BME280;32084;42.254;22.744;2022-12-10T11:09:42;94261.00;;;16.96;60.31
46379;BME280;32084;42.254;22.744;2022-12-10T11:17:51;94262.97;;;16.83;61.20
46379;BME280;32084;42.254;22.744;2022-12-10T11:20:19;94255.09;;;16.81;61.28
46379;BME280;32084;42.254;22.744;2022-12-10T11:22:53;94248.22;;;16.85;61.35
46379;BME280;32084;42.254;22.744;2022-12-10T11:25:20;94238.28;;;16.79;61.31
46379;BME280;32084;42.254;22.744;2022-12-10T11:27:56;94228.97;;;16.75;61.53
46379;BME280;32084;42.254;22.744;2022-12-10T11:30:26;94234.00;;;16.71;61.72
46379;BME280;32084;42.254;22.744;2022-12-10T11:40:44;94240.66;;;16.69;61.02
46379;BME280;32084;42.254;22.744;2022-12-10T11:50:59;94228.09;;;16.56;61.36
46379;BME280;32084;42.254;22.744;2022-12-10T11:53:49;94232.06;;;16.53;61.56
46379;BME280;32084;42.254;22.744;2022-12-10T11:59:02;94230.03;;;16.49;61.91
46379;BME280;32084;42.254;22.744;2022-12-10T12:04:04;94208.88;;;16.46;62.56
46379;BME280;32084;42.254;22.744;2022-12-10T12:06:50;94211.81;;;16.44;62.50
46379;BME280;32084;42.254;22.744;2022-12-10T12:09:28;94206.00;;;16.40;63.08
46379;BME280;32084;42.254;22.744;2022-12-10T12:12:00;94202.28;;;16.42;63.14
46379;BME280;32084;42.254;22.744;2022-12-10T12:14:31;94199.75;;;16.47;63.43
46379;BME280;32084;42.254;22.744;2022-12-10T12:20:01;94167.16;;;16.48;63.07
46379;BME280;32084;42.254;22.744;2022-12-10T12:24:45;94176.91;;;16.49;63.14
46379;BME280;32084;42.254;22.744;2022-12-10T12:29:44;94169.53;;;16.38;64.55
46379;BME280;32084;42.254;22.744;2022-12-10T12:38:03;94140.88;;;16.18;66.55
46379;BME280;32084;42.254;22.744;2022-12-10T12:40:33;94134.88;;;16.16;66.06
46379;BME280;32084;42.254;22.744;2022-12-10T12:43:03;94121.38;;;16.16;65.52
46379;BME280;32084;42.254;22.744;2022-12-10T12:45:48;94127.00;;;16.15;66.21
46379;BME280;32084;42.254;22.744;2022-12-10T12:51:10;94125.78;;;16.11;66.75
46379;BME280;32084;42.254;22.744;2022-12-10T12:53:38;94115.66;;;16.06;66.46
46379;BME280;32084;42.254;22.744;2022-12-10T12:56:17;94121.66;;;16.08;66.88
46379;BME280;32084;42.254;22.744;2022-12-10T13:01:43;94122.31;;;16.04;66.58
46379;BME280;32084;42.254;22.744;2022-12-10T13:04:13;94128.31;;;16.06;65.92
46379;BME280;32084;42.254;22.744;2022-12-10T13:06:39;94119.13;;;16.13;65.42
46379;BME280;32084;42.254;22.744;2022-12-10T13:11:40;94123.38;;;16.28;64.27
46379;BME280;32084;42.254;22.744;2022-12-10T13:22:00;94092.47;;;16.24;63.85
46379;BME280;32084;42.254;22.744;2022-12-10T13:32:19;94090.22;;;16.20;63.95
46379;BME280;32084;42.254;22.744;2022-12-10T13:34:45;94086.56;;;16.15;64.49
46379;BME280;32084;42.254;22.744;2022-12-10T13:37:28;94082.78;;;16.16;64.36
46379;BME280;32084;42.254;22.744;2022-12-10T13:40:02;94086.78;;;16.13;64.49
46379;BME280;32084;42.254;22.744;2022-12-10T13:42:35;94095.47;;;16.15;64.50
46379;BME280;32084;42.254;22.744;2022-12-10T13:50:17;94093.75;;;16.21;64.03
46379;BME280;32084;42.254;22.744;2022-12-10T13:52:56;94097.25;;;16.22;64.12
46379;BME280;32084;42.254;22.744;2022-12-10T13:55:34;94101.22;;;16.19;64.17
46379;BME280;32084;42.254;22.744;2022-12-10T14:08:01;94091.78;;;16.10;64.97
46379;BME280;32084;42.254;22.744;2022-12-10T14:10:30;94095.88;;;16.12;65.03
46379;BME280;32084;42.254;22.744;2022-12-10T14:12:57;94095.06;;;16.12;65.06
46379;BME280;32084;42.254;22.744;2022-12-10T14:15:24;94092.16;;;16.13;65.02
46379;BME280;32084;42.254;22.744;2022-12-10T14:18:08;94094.84;;;16.13;65.23
46379;BME280;32084;42.254;22.744;2022-12-10T14:20:35;94084.97;;;16.07;65.32
46379;BME280;32084;42.254;22.744;2022-12-10T14:23:03;94082.88;;;16.09;65.31
46379;BME280;32084;42.254;22.744;2022-12-10T14:25:48;94078.97;;;16.05;65.47
46379;BME280;32084;42.254;22.744;2022-12-10T14:28:15;94070.88;;;16.05;65.71
46379;BME280;32084;42.254;22.744;2022-12-10T14:30:47;94067.34;;;16.05;65.80
46379;BME280;32084;42.254;22.744;2022-12-10T14:33:18;94057.41;;;16.05;66.15
46379;BME280;32084;42.254;22.744;2022-12-10T14:35:47;94052.81;;;16.06;66.17
46379;BME280;32084;42.254;22.744;2022-12-10T14:38:21;94049.06;;;16.07;66.02
46379;BME280;32084;42.254;22.744;2022-12-10T14:40:49;94054.53;;;16.00;66.45
46379;BME280;32084;42.254;22.744;2022-12-10T14:43:19;94058.13;;;15.94;66.63
46379;BME280;32084;42.254;22.744;2022-12-10T14:48:16;94066.94;;;15.83;67.63
46379;BME280;32084;42.254;22.744;2022-12-10T14:50:43;94064.22;;;15.83;67.16
46379;BME280;32084;42.254;22.744;2022-12-10T14:53:14;94054.69;;;15.80;68.05
46379;BME280;32084;42.254;22.744;2022-12-10T14:55:40;94045.56;;;15.81;68.42
46379;BME280;32084;42.254;22.744;2022-12-10T14:58:09;94043.28;;;15.85;67.89
46379;BME280;32084;42.254;22.744;2022-12-10T15:00:36;94039.59;;;15.79;68.94